Spabunker 51 — ECNA — position and weather

sailwx.info

Track history (hours):
 
Tides and Currents Weather Stations Pressure Air Temp Water Temp Dewpoint Dewpoint Depression Visibility Wind Speed Wind Dir Waves Ship Positions

Spabunker 51

Last reported at 2016-Feb-07 12:23 UTC. Time now 2016-Feb-07 12:50 UTC.
Position N 36°09' W 005°26'.

Length 84 m; draft 5.8 m.

Type: Ship (hazmat cat A). MMSI: 224322240.

Date/timePositionNaut miles runAvg speedWind from/ knotsBaromVisibWave heightAir tempDewpointWater temp
2016-Feb-07 12:23N 36°09' W 005°26'0 0.0
2016-Feb-07 11:28N 36°09' W 005°26'2 1.8
2016-Feb-07 10:32N 36°07' W 005°25'2 1.8
2016-Feb-07 09:33N 36°06' W 005°25'0 0.1
2016-Feb-07 08:33N 36°06' W 005°25'0 0.1
2016-Feb-07 07:33N 36°06' W 005°25'0 0.1
2016-Feb-07 06:33N 36°06' W 005°25'0 0.0
2016-Feb-07 05:33N 36°06' W 005°25'0 0.0
2016-Feb-07 04:33N 36°06' W 005°25'0 0.0
2016-Feb-07 03:33N 36°06' W 005°25'0 0.0
2016-Feb-07 02:33N 36°06' W 005°25'0 0.0
2016-Feb-07 01:33N 36°06' W 005°25'0 0.0
2016-Feb-07 00:33N 36°06' W 005°25'2 2.4
2016-Feb-06 23:33N 36°08' W 005°25'2 0.6
2016-Feb-06 20:14N 36°10' W 005°24'0 0.0
2016-Feb-06 19:31N 36°10' W 005°24'0 0.0
2016-Feb-06 18:11N 36°10' W 005°24'0 0.1
2016-Feb-06 17:29N 36°10' W 005°24'0 0.0
2016-Feb-06 16:32N 36°10' W 005°24'0 0.2
2016-Feb-06 15:33N 36°10' W 005°24'1 1.0
2016-Feb-06 14:28N 36°10' W 005°26'1 0.3
2016-Feb-06 09:09N 36°09' W 005°25'2 2.4
2016-Feb-06 08:31N 36°07' W 005°25'1 1.1
2016-Feb-06 07:29N 36°06' W 005°25'0 0.0
2016-Feb-06 06:31N 36°06' W 005°25'0 0.0
2016-Feb-06 05:33N 36°06' W 005°25'0 0.1
2016-Feb-06 04:32N 36°06' W 005°25'0 0.0
2016-Feb-06 03:31N 36°06' W 005°25'1 0.8
2016-Feb-06 02:33N 36°07' W 005°25'2 1.5
2016-Feb-06 01:19N 36°08' W 005°26'0 0.0
2016-Feb-05 23:25N 36°08' W 005°26'0 0.0
2016-Feb-05 22:27N 36°08' W 005°26'0 0.0
2016-Feb-05 21:33N 36°08' W 005°26'0 0.0
2016-Feb-05 20:32N 36°08' W 005°26'0 0.1
2016-Feb-05 16:31N 36°09' W 005°26'0 0.0
2016-Feb-05 14:14N 36°09' W 005°26'0 0.0
2016-Feb-05 13:31N 36°09' W 005°26'0 0.0
2016-Feb-05 09:30N 36°09' W 005°26'0 0.0
2016-Feb-05 08:29N 36°09' W 005°26'1 0.6
2016-Feb-05 07:33N 36°08' W 005°26'0 0.0
2016-Feb-05 06:33N 36°08' W 005°26'0 0.0
2016-Feb-05 05:33N 36°08' W 005°26'0 0.0
2016-Feb-05 04:33N 36°08' W 005°26'0 0.0
2016-Feb-05 03:33N 36°08' W 005°26'0 0.0
2016-Feb-05 02:32N 36°08' W 005°26'0 0.2
2016-Feb-05 01:33N 36°08' W 005°26'0 0.0
2016-Feb-05 00:28N 36°08' W 005°26'0 0.0
2016-Feb-04 22:24N 36°08' W 005°26'0 0.0
2016-Feb-04 21:25N 36°08' W 005°26'0 0.0
2016-Feb-04 16:32N 36°08' W 005°26'0 0.0
2016-Feb-04 15:32N 36°08' W 005°26'0 0.0
2016-Feb-04 14:32N 36°08' W 005°26'0 0.0
2016-Feb-04 13:33N 36°08' W 005°26'0 0.0
2016-Feb-04 12:20N 36°08' W 005°26'0 0.0
2016-Feb-04 11:22N 36°08' W 005°26'3 2.9
2016-Feb-04 10:30N 36°10' W 005°24'0 0.0
2016-Feb-04 09:27N 36°10' W 005°24'0 0.0
2016-Feb-04 08:33N 36°10' W 005°24'0 0.0
2016-Feb-04 07:33N 36°10' W 005°24'0 0.0
2016-Feb-04 06:33N 36°10' W 005°24'2 0.6
2016-Feb-04 02:33N 36°09' W 005°26'0 0.0
2016-Feb-04 01:33N 36°09' W 005°26'0 0.0
2016-Feb-04 00:33N 36°09' W 005°26'0 0.0
2016-Feb-03 23:31N 36°09' W 005°26'0 0.0
2016-Feb-03 21:16N 36°09' W 005°26'0 0.0
2016-Feb-03 18:03N 36°09' W 005°26'0 0.0
2016-Feb-03 17:19N 36°09' W 005°26'0 0.0
2016-Feb-03 16:27N 36°09' W 005°26'1 1.3
2016-Feb-03 15:31N 36°09' W 005°24'0 0.0
2016-Feb-03 14:21N 36°09' W 005°24'0 0.0
2016-Feb-03 13:27N 36°09' W 005°24'0 0.0
2016-Feb-03 12:26N 36°09' W 005°24'0 0.1
2016-Feb-03 11:29N 36°09' W 005°24'1 1.3
2016-Feb-03 10:20N 36°09' W 005°26'0 0.2
2016-Feb-03 09:33N 36°09' W 005°26'0 0.0
2016-Feb-03 08:33N 36°09' W 005°26'0 0.0
2016-Feb-03 07:33N 36°09' W 005°26'3 3.4
2016-Feb-03 06:33N 36°05' W 005°25'1 0.8
2016-Feb-03 05:33N 36°05' W 005°25'0 0.0
2016-Feb-03 04:33N 36°05' W 005°25'0 0.0
2016-Feb-03 03:33N 36°05' W 005°25'0 0.1
2016-Feb-03 02:33N 36°05' W 005°25'0 0.0
2016-Feb-03 01:33N 36°05' W 005°25'0 0.0
2016-Feb-03 00:33N 36°05' W 005°25'0 0.0
2016-Feb-02 23:33N 36°05' W 005°25'1 0.8
2016-Feb-02 22:33N 36°05' W 005°24'0 0.0
2016-Feb-02 21:31N 36°05' W 005°24'1 0.1
2016-Feb-02 08:26N 36°06' W 005°25'0 0.0
2016-Feb-02 07:29N 36°06' W 005°25'1 1.0
2016-Feb-02 06:29N 36°07' W 005°25'0 0.3
2016-Feb-02 05:33N 36°07' W 005°25'0 0.0
2016-Feb-02 04:33N 36°07' W 005°25'0 0.0
2016-Feb-02 03:33N 36°07' W 005°25'0 0.0
2016-Feb-02 02:33N 36°07' W 005°25'0 0.0
2016-Feb-02 01:33N 36°07' W 005°25'0 0.0
2016-Feb-02 00:33N 36°07' W 005°25'0 0.0
2016-Feb-01 23:33N 36°07' W 005°25'0 0.0
2016-Feb-01 22:33N 36°07' W 005°25'0 0.0
2016-Feb-01 21:33N 36°07' W 005°25'0 0.0
2016-Feb-01 20:33N 36°07' W 005°25'0 0.0
2016-Feb-01 19:33N 36°07' W 005°25'4 1.8
2016-Feb-01 17:32N 36°11' W 005°24'0 0.0
2016-Feb-01 16:33N 36°11' W 005°24'0 0.0
2016-Feb-01 15:27N 36°11' W 005°24'0 0.0
2016-Feb-01 14:33N 36°11' W 005°24'0 0.0
2016-Feb-01 13:32N 36°11' W 005°24'0 0.0
2016-Feb-01 12:30N 36°11' W 005°24'0 0.0
2016-Feb-01 11:33N 36°11' W 005°24'0 0.0
2016-Feb-01 10:26N 36°11' W 005°24'2 0.6
2016-Feb-01 07:22N 36°10' W 005°26'0 0.0
2016-Feb-01 06:33N 36°10' W 005°26'0 0.0
2016-Feb-01 05:31N 36°10' W 005°26'2 2.0
2016-Feb-01 04:33N 36°08' W 005°26'0 0.0
2016-Feb-01 02:32N 36°08' W 005°26'0 0.0
2016-Feb-01 01:33N 36°08' W 005°26'0 0.0
2016-Feb-01 00:29N 36°08' W 005°26'0 0.0
2016-Jan-31 23:30N 36°08' W 005°26'3 3.4
2016-Jan-31 22:31N 36°10' W 005°24'0 0.0
2016-Jan-31 21:32N 36°10' W 005°24'5 1.8
2016-Jan-31 18:33N 36°05' W 005°25'0 0.2
2016-Jan-31 17:32N 36°05' W 005°25'0 0.0
2016-Jan-31 16:33N 36°05' W 005°25'0 0.0
2016-Jan-31 15:33N 36°05' W 005°25'0 0.0
2016-Jan-31 14:33N 36°05' W 005°25'0 0.0
2016-Jan-31 13:33N 36°05' W 005°25'0 0.0
2016-Jan-31 12:33N 36°05' W 005°25'0 0.0
2016-Jan-31 11:33N 36°05' W 005°25'0 0.3
2016-Jan-31 10:33N 36°05' W 005°25'0 0.0
2016-Jan-31 09:32N 36°05' W 005°25'0 0.2
2016-Jan-31 08:33N 36°06' W 005°25'0 0.1
2016-Jan-31 07:30N 36°06' W 005°25'0 0.0
2016-Jan-31 06:33N 36°06' W 005°25'0 0.0
2016-Jan-31 05:33N 36°06' W 005°25'0 0.1
2016-Jan-31 04:28N 36°06' W 005°25'0 0.0
2016-Jan-31 03:33N 36°06' W 005°25'0 0.0
2016-Jan-31 02:27N 36°06' W 005°25'0 0.2
2016-Jan-31 01:32N 36°06' W 005°25'4 4.3
2016-Jan-31 00:33N 36°10' W 005°25'0 0.0
2016-Jan-30 23:25N 36°10' W 005°25'0 0.0
2016-Jan-30 22:29N 36°10' W 005°25'0 0.0
2016-Jan-30 21:33N 36°10' W 005°25'0 0.0
2016-Jan-30 20:32N 36°10' W 005°25'0 0.0
2016-Jan-30 19:33N 36°10' W 005°25'0 0.0
2016-Jan-30 17:21N 36°10' W 005°26'0 0.0
2016-Jan-30 16:30N 36°10' W 005°25'0 0.0
2016-Jan-30 15:33N 36°10' W 005°25'0 0.0
2016-Jan-30 14:29N 36°10' W 005°25'0 0.0
2016-Jan-30 13:33N 36°10' W 005°25'0 0.0
2016-Jan-30 12:29N 36°10' W 005°25'1 0.3
2016-Jan-30 09:15N 36°10' W 005°24'0 0.0
2016-Jan-30 07:03N 36°10' W 005°24'0 0.0
2016-Jan-30 06:33N 36°10' W 005°24'0 0.0
2016-Jan-30 05:33N 36°10' W 005°24'2 0.7
2016-Jan-30 02:33N 36°08' W 005°26'0 0.0
2016-Jan-29 23:14N 36°08' W 005°26'3 0.2
2016-Jan-29 10:05N 36°06' W 005°25'0 0.0
2016-Jan-29 09:25N 36°05' W 005°25'0 0.0
2016-Jan-29 08:33N 36°05' W 005°25'0 0.0
2016-Jan-29 07:33N 36°06' W 005°25'0 0.1
2016-Jan-29 06:33N 36°06' W 005°25'0 0.1
2016-Jan-29 05:33N 36°06' W 005°25'4 4.0
2016-Jan-29 04:33N 36°10' W 005°24'1 1.2
2016-Jan-29 03:33N 36°11' W 005°24'0 0.0
2016-Jan-29 02:33N 36°11' W 005°24'0 0.0
2016-Jan-29 01:33N 36°11' W 005°24'0 0.0
2016-Jan-29 00:32N 36°11' W 005°24'0 0.0
2016-Jan-28 23:30N 36°11' W 005°24'0 0.0
2016-Jan-28 22:33N 36°11' W 005°24'0 0.0
2016-Jan-28 21:33N 36°11' W 005°24'0 0.0
2016-Jan-28 20:33N 36°11' W 005°24'0 0.0
2016-Jan-28 19:33N 36°11' W 005°24'0 0.0
2016-Jan-28 18:32N 36°11' W 005°24'2 1.8
2016-Jan-28 17:13N 36°09' W 005°26'1 0.1
2016-Jan-28 13:10N 36°08' W 005°26'0 0.0
2016-Jan-28 12:31N 36°08' W 005°26'  
Track history (hours):
 
Tides and Currents Weather Stations Pressure Air Temp Water Temp Dewpoint Dewpoint Depression Visibility Wind Speed Wind Dir Waves Ship Positions

Spabunker 51

Last reported at 2016-Feb-07 12:23 UTC. Time now 2016-Feb-07 12:50 UTC.
Position N 36°09' W 005°26'.

Length 84 m; draft 5.8 m.

Type: Ship (hazmat cat A). MMSI: 224322240.

Date/timePositionNaut miles runAvg speedWind from/ knotsBaromVisibWave heightAir tempDewpointWater temp
2016-Feb-07 12:23N 36°09' W 005°26'0 0.0
2016-Feb-07 11:28N 36°09' W 005°26'2 1.8
2016-Feb-07 10:32N 36°07' W 005°25'2 1.8
2016-Feb-07 09:33N 36°06' W 005°25'0 0.1
2016-Feb-07 08:33N 36°06' W 005°25'0 0.1
2016-Feb-07 07:33N 36°06' W 005°25'0 0.1
2016-Feb-07 06:33N 36°06' W 005°25'0 0.0
2016-Feb-07 05:33N 36°06' W 005°25'0 0.0
2016-Feb-07 04:33N 36°06' W 005°25'0 0.0
2016-Feb-07 03:33N 36°06' W 005°25'0 0.0
2016-Feb-07 02:33N 36°06' W 005°25'0 0.0
2016-Feb-07 01:33N 36°06' W 005°25'0 0.0
2016-Feb-07 00:33N 36°06' W 005°25'2 2.4
2016-Feb-06 23:33N 36°08' W 005°25'2 0.6
2016-Feb-06 20:14N 36°10' W 005°24'0 0.0
2016-Feb-06 19:31N 36°10' W 005°24'0 0.0
2016-Feb-06 18:11N 36°10' W 005°24'0 0.1
2016-Feb-06 17:29N 36°10' W 005°24'0 0.0
2016-Feb-06 16:32N 36°10' W 005°24'0 0.2
2016-Feb-06 15:33N 36°10' W 005°24'1 1.0
2016-Feb-06 14:28N 36°10' W 005°26'1 0.3
2016-Feb-06 09:09N 36°09' W 005°25'2 2.4
2016-Feb-06 08:31N 36°07' W 005°25'1 1.1
2016-Feb-06 07:29N 36°06' W 005°25'0 0.0
2016-Feb-06 06:31N 36°06' W 005°25'0 0.0
2016-Feb-06 05:33N 36°06' W 005°25'0 0.1
2016-Feb-06 04:32N 36°06' W 005°25'0 0.0
2016-Feb-06 03:31N 36°06' W 005°25'1 0.8
2016-Feb-06 02:33N 36°07' W 005°25'2 1.5
2016-Feb-06 01:19N 36°08' W 005°26'0 0.0
2016-Feb-05 23:25N 36°08' W 005°26'0 0.0
2016-Feb-05 22:27N 36°08' W 005°26'0 0.0
2016-Feb-05 21:33N 36°08' W 005°26'0 0.0
2016-Feb-05 20:32N 36°08' W 005°26'0 0.1
2016-Feb-05 16:31N 36°09' W 005°26'0 0.0
2016-Feb-05 14:14N 36°09' W 005°26'0 0.0
2016-Feb-05 13:31N 36°09' W 005°26'0 0.0
2016-Feb-05 09:30N 36°09' W 005°26'0 0.0
2016-Feb-05 08:29N 36°09' W 005°26'1 0.6
2016-Feb-05 07:33N 36°08' W 005°26'0 0.0
2016-Feb-05 06:33N 36°08' W 005°26'0 0.0
2016-Feb-05 05:33N 36°08' W 005°26'0 0.0
2016-Feb-05 04:33N 36°08' W 005°26'0 0.0
2016-Feb-05 03:33N 36°08' W 005°26'0 0.0
2016-Feb-05 02:32N 36°08' W 005°26'0 0.2
2016-Feb-05 01:33N 36°08' W 005°26'0 0.0
2016-Feb-05 00:28N 36°08' W 005°26'0 0.0
2016-Feb-04 22:24N 36°08' W 005°26'0 0.0
2016-Feb-04 21:25N 36°08' W 005°26'0 0.0
2016-Feb-04 16:32N 36°08' W 005°26'0 0.0
2016-Feb-04 15:32N 36°08' W 005°26'0 0.0
2016-Feb-04 14:32N 36°08' W 005°26'0 0.0
2016-Feb-04 13:33N 36°08' W 005°26'0 0.0
2016-Feb-04 12:20N 36°08' W 005°26'0 0.0
2016-Feb-04 11:22N 36°08' W 005°26'3 2.9
2016-Feb-04 10:30N 36°10' W 005°24'0 0.0
2016-Feb-04 09:27N 36°10' W 005°24'0 0.0
2016-Feb-04 08:33N 36°10' W 005°24'0 0.0
2016-Feb-04 07:33N 36°10' W 005°24'0 0.0
2016-Feb-04 06:33N 36°10' W 005°24'2 0.6
2016-Feb-04 02:33N 36°09' W 005°26'0 0.0
2016-Feb-04 01:33N 36°09' W 005°26'0 0.0
2016-Feb-04 00:33N 36°09' W 005°26'0 0.0
2016-Feb-03 23:31N 36°09' W 005°26'0 0.0
2016-Feb-03 21:16N 36°09' W 005°26'0 0.0
2016-Feb-03 18:03N 36°09' W 005°26'0 0.0
2016-Feb-03 17:19N 36°09' W 005°26'0 0.0
2016-Feb-03 16:27N 36°09' W 005°26'1 1.3
2016-Feb-03 15:31N 36°09' W 005°24'0 0.0
2016-Feb-03 14:21N 36°09' W 005°24'0 0.0
2016-Feb-03 13:27N 36°09' W 005°24'0 0.0
2016-Feb-03 12:26N 36°09' W 005°24'0 0.1
2016-Feb-03 11:29N 36°09' W 005°24'1 1.3
2016-Feb-03 10:20N 36°09' W 005°26'0 0.2
2016-Feb-03 09:33N 36°09' W 005°26'0 0.0
2016-Feb-03 08:33N 36°09' W 005°26'0 0.0
2016-Feb-03 07:33N 36°09' W 005°26'3 3.4
2016-Feb-03 06:33N 36°05' W 005°25'1 0.8
2016-Feb-03 05:33N 36°05' W 005°25'0 0.0
2016-Feb-03 04:33N 36°05' W 005°25'0 0.0
2016-Feb-03 03:33N 36°05' W 005°25'0 0.1
2016-Feb-03 02:33N 36°05' W 005°25'0 0.0
2016-Feb-03 01:33N 36°05' W 005°25'0 0.0
2016-Feb-03 00:33N 36°05' W 005°25'0 0.0
2016-Feb-02 23:33N 36°05' W 005°25'1 0.8
2016-Feb-02 22:33N 36°05' W 005°24'0 0.0
2016-Feb-02 21:31N 36°05' W 005°24'1 0.1
2016-Feb-02 08:26N 36°06' W 005°25'0 0.0
2016-Feb-02 07:29N 36°06' W 005°25'1 1.0
2016-Feb-02 06:29N 36°07' W 005°25'0 0.3
2016-Feb-02 05:33N 36°07' W 005°25'0 0.0
2016-Feb-02 04:33N 36°07' W 005°25'0 0.0
2016-Feb-02 03:33N 36°07' W 005°25'0 0.0
2016-Feb-02 02:33N 36°07' W 005°25'0 0.0
2016-Feb-02 01:33N 36°07' W 005°25'0 0.0
2016-Feb-02 00:33N 36°07' W 005°25'0 0.0
2016-Feb-01 23:33N 36°07' W 005°25'0 0.0
2016-Feb-01 22:33N 36°07' W 005°25'0 0.0
2016-Feb-01 21:33N 36°07' W 005°25'0 0.0
2016-Feb-01 20:33N 36°07' W 005°25'0 0.0
2016-Feb-01 19:33N 36°07' W 005°25'4 1.8
2016-Feb-01 17:32N 36°11' W 005°24'0 0.0
2016-Feb-01 16:33N 36°11' W 005°24'0 0.0
2016-Feb-01 15:27N 36°11' W 005°24'0 0.0
2016-Feb-01 14:33N 36°11' W 005°24'0 0.0
2016-Feb-01 13:32N 36°11' W 005°24'0 0.0
2016-Feb-01 12:30N 36°11' W 005°24'0 0.0
2016-Feb-01 11:33N 36°11' W 005°24'0 0.0
2016-Feb-01 10:26N 36°11' W 005°24'2 0.6
2016-Feb-01 07:22N 36°10' W 005°26'0 0.0
2016-Feb-01 06:33N 36°10' W 005°26'0 0.0
2016-Feb-01 05:31N 36°10' W 005°26'2 2.0
2016-Feb-01 04:33N 36°08' W 005°26'0 0.0
2016-Feb-01 02:32N 36°08' W 005°26'0 0.0
2016-Feb-01 01:33N 36°08' W 005°26'0 0.0
2016-Feb-01 00:29N 36°08' W 005°26'0 0.0
2016-Jan-31 23:30N 36°08' W 005°26'3 3.4
2016-Jan-31 22:31N 36°10' W 005°24'0 0.0
2016-Jan-31 21:32N 36°10' W 005°24'5 1.8
2016-Jan-31 18:33N 36°05' W 005°25'0 0.2
2016-Jan-31 17:32N 36°05' W 005°25'0 0.0
2016-Jan-31 16:33N 36°05' W 005°25'0 0.0
2016-Jan-31 15:33N 36°05' W 005°25'0 0.0
2016-Jan-31 14:33N 36°05' W 005°25'0 0.0
2016-Jan-31 13:33N 36°05' W 005°25'0 0.0
2016-Jan-31 12:33N 36°05' W 005°25'0 0.0
2016-Jan-31 11:33N 36°05' W 005°25'0 0.3
2016-Jan-31 10:33N 36°05' W 005°25'0 0.0
2016-Jan-31 09:32N 36°05' W 005°25'0 0.2
2016-Jan-31 08:33N 36°06' W 005°25'0 0.1
2016-Jan-31 07:30N 36°06' W 005°25'0 0.0
2016-Jan-31 06:33N 36°06' W 005°25'0 0.0
2016-Jan-31 05:33N 36°06' W 005°25'0 0.1
2016-Jan-31 04:28N 36°06' W 005°25'0 0.0
2016-Jan-31 03:33N 36°06' W 005°25'0 0.0
2016-Jan-31 02:27N 36°06' W 005°25'0 0.2
2016-Jan-31 01:32N 36°06' W 005°25'4 4.3
2016-Jan-31 00:33N 36°10' W 005°25'0 0.0
2016-Jan-30 23:25N 36°10' W 005°25'0 0.0
2016-Jan-30 22:29N 36°10' W 005°25'0 0.0
2016-Jan-30 21:33N 36°10' W 005°25'0 0.0
2016-Jan-30 20:32N 36°10' W 005°25'0 0.0
2016-Jan-30 19:33N 36°10' W 005°25'0 0.0
2016-Jan-30 17:21N 36°10' W 005°26'0 0.0
2016-Jan-30 16:30N 36°10' W 005°25'0 0.0
2016-Jan-30 15:33N 36°10' W 005°25'0 0.0
2016-Jan-30 14:29N 36°10' W 005°25'0 0.0
2016-Jan-30 13:33N 36°10' W 005°25'0 0.0
2016-Jan-30 12:29N 36°10' W 005°25'1 0.3
2016-Jan-30 09:15N 36°10' W 005°24'0 0.0
2016-Jan-30 07:03N 36°10' W 005°24'0 0.0
2016-Jan-30 06:33N 36°10' W 005°24'0 0.0
2016-Jan-30 05:33N 36°10' W 005°24'2 0.7
2016-Jan-30 02:33N 36°08' W 005°26'0 0.0
2016-Jan-29 23:14N 36°08' W 005°26'3 0.2
2016-Jan-29 10:05N 36°06' W 005°25'0 0.0
2016-Jan-29 09:25N 36°05' W 005°25'0 0.0
2016-Jan-29 08:33N 36°05' W 005°25'0 0.0
2016-Jan-29 07:33N 36°06' W 005°25'0 0.1
2016-Jan-29 06:33N 36°06' W 005°25'0 0.1
2016-Jan-29 05:33N 36°06' W 005°25'4 4.0
2016-Jan-29 04:33N 36°10' W 005°24'1 1.2
2016-Jan-29 03:33N 36°11' W 005°24'0 0.0
2016-Jan-29 02:33N 36°11' W 005°24'0 0.0
2016-Jan-29 01:33N 36°11' W 005°24'0 0.0
2016-Jan-29 00:32N 36°11' W 005°24'0 0.0
2016-Jan-28 23:30N 36°11' W 005°24'0 0.0
2016-Jan-28 22:33N 36°11' W 005°24'0 0.0
2016-Jan-28 21:33N 36°11' W 005°24'0 0.0
2016-Jan-28 20:33N 36°11' W 005°24'0 0.0
2016-Jan-28 19:33N 36°11' W 005°24'0 0.0
2016-Jan-28 18:32N 36°11' W 005°24'2 1.8
2016-Jan-28 17:13N 36°09' W 005°26'1 0.1
2016-Jan-28 13:10N 36°08' W 005°26'0 0.0
2016-Jan-28 12:31N 36°08' W 005°26'  

Dump ship's entire track history